Time,TemperatureF,DewpointF,PressureIn,WindDirection,WindDirectionDegrees,WindSpeedMPH,WindSpeedGustMPH,Humidity,HourlyPrecipIn,Conditions,Clouds,dailyrainin,SolarRadiationWatts/m^2,SoftwareType,DateUTC
2013-03-17 00:01:00,35.0,19.0,-100.00,SSW,209,3.0,17.0,52,0.00,,,0.00,0.000000,,2013-03-17 06:01:00,
2013-03-17 00:32:00,32.0,30.0,-100.00,WSW,240,4.0,14.0,93,0.00,,,0.00,0.000000,,2013-03-17 06:32:00,
2013-03-17 00:42:00,32.0,30.0,-100.00,WSW,240,4.0,14.0,93,0.00,,,0.00,0.000000,,2013-03-17 06:42:00,
2013-03-17 00:52:00,32.0,30.0,-100.00,WSW,240,4.0,14.0,93,0.00,,,0.00,0.000000,,2013-03-17 06:52:00,
2013-03-17 01:01:00,32.0,30.0,-100.00,WSW,240,4.0,14.0,93,0.00,,,0.00,0.000000,,2013-03-17 07:01:00,
2013-03-17 01:22:00,31.0,31.0,-100.00,SW,225,5.0,12.0,100,0.00,,,0.00,0.000000,,2013-03-17 07:22:00,
2013-03-17 01:32:00,31.0,31.0,-100.00,SW,225,5.0,12.0,100,0.00,,,0.00,0.000000,,2013-03-17 07:32:00,
2013-03-17 01:42:00,31.0,31.0,-100.00,SW,225,5.0,12.0,100,0.00,,,0.00,0.000000,,2013-03-17 07:42:00,
2013-03-17 01:52:00,31.0,31.0,-100.00,SW,225,5.0,12.0,100,0.00,,,0.00,0.000000,,2013-03-17 07:52:00,
2013-03-17 02:02:00,31.0,31.0,-100.00,SW,225,5.0,12.0,100,0.00,,,0.00,0.000000,,2013-03-17 08:02:00,
2013-03-17 02:33:00,31.0,31.0,-100.00,WSW,238,5.0,19.0,100,0.00,,,0.00,0.000000,,2013-03-17 08:33:00,
2013-03-17 02:42:00,31.0,31.0,-100.00,WSW,238,5.0,19.0,100,0.00,,,0.00,0.000000,,2013-03-17 08:42:00,
2013-03-17 02:52:00,31.0,31.0,-100.00,WSW,238,5.0,19.0,100,0.00,,,0.00,0.000000,,2013-03-17 08:52:00,
2013-03-17 03:02:00,31.0,31.0,-100.00,WSW,238,5.0,19.0,100,0.00,,,0.00,0.000000,,2013-03-17 09:02:00,
2013-03-17 03:22:00,31.0,31.0,-100.00,SW,230,7.0,20.0,98,0.00,,,0.00,0.000000,,2013-03-17 09:22:00,
2013-03-17 03:32:00,31.0,31.0,-100.00,SW,230,7.0,20.0,98,0.00,,,0.00,0.000000,,2013-03-17 09:32:00,
2013-03-17 03:43:00,31.0,31.0,-100.00,SW,230,7.0,20.0,98,0.00,,,0.00,0.000000,,2013-03-17 09:43:00,
2013-03-17 03:53:00,31.0,31.0,-100.00,SW,230,7.0,20.0,98,0.00,,,0.00,0.000000,,2013-03-17 09:53:00,
2013-03-17 04:02:00,31.0,31.0,-100.00,SW,230,7.0,20.0,98,0.00,,,0.00,0.000000,,2013-03-17 10:02:00,
2013-03-17 04:33:00,31.0,29.0,-100.00,SW,225,8.0,20.0,93,0.00,,,0.00,0.000000,,2013-03-17 10:33:00,
2013-03-17 04:42:00,31.0,29.0,-100.00,SW,225,8.0,20.0,93,0.00,,,0.00,0.000000,,2013-03-17 10:42:00,
2013-03-17 04:52:00,31.0,29.0,-100.00,SW,225,8.0,20.0,93,0.00,,,0.00,0.000000,,2013-03-17 10:52:00,
2013-03-17 05:02:00,31.0,29.0,-100.00,SW,225,8.0,20.0,93,0.00,,,0.00,0.000000,,2013-03-17 11:02:00,
2013-03-17 05:22:00,30.0,27.0,-100.00,SW,226,7.0,19.0,87,0.00,,,0.00,0.000000,,2013-03-17 11:22:00,
2013-03-17 05:32:00,30.0,27.0,-100.00,SW,226,7.0,19.0,87,0.00,,,0.00,0.000000,,2013-03-17 11:32:00,
2013-03-17 05:42:00,30.0,27.0,-100.00,SW,226,7.0,19.0,87,0.00,,,0.00,0.000000,,2013-03-17 11:42:00,
2013-03-17 05:52:00,30.0,27.0,-100.00,SW,226,7.0,19.0,87,0.00,,,0.00,0.000000,,2013-03-17 11:52:00,
2013-03-17 06:01:00,30.0,27.0,-100.00,SW,226,7.0,19.0,87,0.00,,,0.00,0.000000,,2013-03-17 12:01:00,
2013-03-17 06:22:00,27.0,22.0,-100.00,SSW,208,4.0,18.0,80,0.00,,,0.00,0.000000,,2013-03-17 12:22:00,
2013-03-17 06:33:00,27.0,22.0,-100.00,SSW,208,4.0,18.0,80,0.00,,,0.00,0.000000,,2013-03-17 12:33:00,
2013-03-17 06:43:00,27.0,22.0,-100.00,SSW,208,4.0,18.0,80,0.00,,,0.00,0.000000,,2013-03-17 12:43:00,
2013-03-17 06:52:00,27.0,22.0,-100.00,SSW,208,4.0,18.0,80,0.00,,,0.00,0.000000,,2013-03-17 12:52:00,
2013-03-17 07:01:00,27.0,22.0,-100.00,SSW,208,4.0,18.0,80,0.00,,,0.00,0.000000,,2013-03-17 13:01:00,
2013-03-17 07:32:00,25.0,21.0,-100.00,SW,221,6.0,20.0,83,0.00,,,0.00,0.000000,,2013-03-17 13:32:00,
2013-03-17 07:43:00,25.0,21.0,-100.00,SW,221,6.0,20.0,83,0.00,,,0.00,0.000000,,2013-03-17 13:43:00,
2013-03-17 07:52:00,25.0,21.0,-100.00,SW,221,6.0,20.0,83,0.00,,,0.00,0.000000,,2013-03-17 13:52:00,
2013-03-17 08:02:00,25.0,21.0,-100.00,SW,221,6.0,20.0,83,0.00,,,0.00,0.000000,,2013-03-17 14:02:00,
2013-03-17 08:22:00,24.0,24.0,-100.00,SW,232,6.0,25.0,98,0.00,,,0.00,0.000000,,2013-03-17 14:22:00,
2013-03-17 08:33:00,24.0,24.0,-100.00,SW,232,6.0,25.0,98,0.00,,,0.00,0.000000,,2013-03-17 14:33:00,
2013-03-17 08:42:00,24.0,24.0,-100.00,SW,232,6.0,25.0,98,0.00,,,0.00,0.000000,,2013-03-17 14:42:00,
2013-03-17 08:52:00,24.0,24.0,-100.00,SW,232,6.0,25.0,98,0.00,,,0.00,0.000000,,2013-03-17 14:52:00,
2013-03-17 09:01:00,24.0,24.0,-100.00,SW,232,6.0,25.0,98,0.00,,,0.00,0.000000,,2013-03-17 15:01:00,
2013-03-17 09:03:00,23.0,23.0,-100.00,WSW,240,5.0,18.0,98,0.00,,,0.00,3.000000,,2013-03-17 15:03:00,
2013-03-17 09:33:00,23.0,23.0,-100.00,WSW,240,5.0,18.0,98,0.00,,,0.00,3.000000,,2013-03-17 15:33:00,
2013-03-17 09:43:00,23.0,23.0,-100.00,WSW,240,5.0,18.0,98,0.00,,,0.00,3.000000,,2013-03-17 15:43:00,
2013-03-17 09:53:00,23.0,23.0,-100.00,WSW,240,5.0,18.0,98,0.00,,,0.00,3.000000,,2013-03-17 15:53:00,
2013-03-17 10:23:00,22.0,21.0,-100.00,SW,234,7.0,23.0,97,0.00,,,0.00,12.000000,,2013-03-17 16:23:00,
2013-03-17 10:33:00,22.0,21.0,-100.00,SW,234,7.0,23.0,97,0.00,,,0.00,12.000000,,2013-03-17 16:33:00,
2013-03-17 10:43:00,22.0,21.0,-100.00,SW,234,7.0,23.0,97,0.00,,,0.00,12.000000,,2013-03-17 16:43:00,
2013-03-17 10:52:00,22.0,21.0,-100.00,SW,234,7.0,23.0,97,0.00,,,0.00,12.000000,,2013-03-17 16:52:00,
2013-03-17 11:02:00,22.0,21.0,-100.00,SW,234,7.0,23.0,97,0.00,,,0.00,12.000000,,2013-03-17 17:02:00,
2013-03-17 11:33:00,23.0,22.0,-100.00,West,259,2.0,16.0,97,0.00,,,0.00,23.000000,,2013-03-17 17:33:00,
2013-03-17 11:42:00,23.0,22.0,-100.00,West,259,2.0,16.0,97,0.00,,,0.00,23.000000,,2013-03-17 17:42:00,
2013-03-17 11:53:00,23.0,22.0,-100.00,West,259,2.0,16.0,97,0.00,,,0.00,23.000000,,2013-03-17 17:53:00,
2013-03-17 12:01:00,23.0,22.0,-100.00,West,259,2.0,16.0,97,0.00,,,0.00,23.000000,,2013-03-17 18:01:00,
2013-03-17 12:22:00,27.0,26.0,-100.00,WSW,257,2.0,11.0,95,0.00,,,0.00,64.000000,,2013-03-17 18:22:00,
2013-03-17 12:32:00,27.0,26.0,-100.00,WSW,257,2.0,11.0,95,0.00,,,0.00,64.000000,,2013-03-17 18:32:00,
2013-03-17 13:23:00,30.0,26.0,-100.00,ESE,115,3.0,9.0,86,0.00,,,0.00,322.000000,,2013-03-17 19:23:00,
2013-03-17 13:33:00,30.0,26.0,-100.00,ESE,115,3.0,9.0,86,0.00,,,0.00,322.000000,,2013-03-17 19:33:00,
2013-03-17 14:33:00,32.0,27.0,-100.00,WSW,256,3.0,11.0,81,0.00,,,0.00,427.000000,,2013-03-17 20:33:00,
2013-03-17 15:33:00,36.0,20.0,-100.00,WSW,251,3.0,13.0,51,-99.99,,,0.01,832.000000,,2013-03-17 21:33:00,
2013-03-17 16:33:00,34.0,9.0,-100.00,WSW,252,3.0,11.0,34,-99.99,,,0.01,755.000000,,2013-03-17 22:33:00,
2013-03-17 17:22:00,31.0,12.0,-100.00,WSW,249,4.0,10.0,45,-99.99,,,0.01,501.000000,,2013-03-17 23:22:00,
2013-03-17 17:33:00,31.0,12.0,-100.00,WSW,249,4.0,10.0,45,-99.99,,,0.01,501.000000,,2013-03-17 23:33:00,
2013-03-17 18:33:00,25.0,10.0,-100.00,WNW,303,2.0,9.0,53,0.00,,,0.01,130.000000,,2013-03-18 00:33:00,
2013-03-17 18:42:00,25.0,10.0,-100.00,WNW,303,2.0,9.0,53,0.00,,,0.01,130.000000,,2013-03-18 00:42:00,
2013-03-17 18:52:00,25.0,10.0,-100.00,WNW,303,2.0,9.0,53,0.00,,,0.01,130.000000,,2013-03-18 00:52:00,
2013-03-17 19:33:00,23.0,14.0,-100.00,WSW,245,1.0,8.0,68,0.00,,,0.01,41.000000,,2013-03-18 01:33:00,
2013-03-17 20:22:00,19.0,13.0,-100.00,SSE,165,1.0,5.0,78,0.00,,,0.01,12.000000,,2013-03-18 02:22:00,
2013-03-17 20:32:00,19.0,13.0,-100.00,SSE,165,1.0,5.0,78,0.00,,,0.01,12.000000,,2013-03-18 02:32:00,
2013-03-17 21:33:00,18.0,14.0,-100.00,SW,235,1.0,4.0,83,0.00,,,-99.99,0.000000,,2013-03-18 03:33:00,
2013-03-17 21:42:00,18.0,14.0,-100.00,SW,235,1.0,4.0,83,0.00,,,-99.99,0.000000,,2013-03-18 03:42:00,
2013-03-17 21:53:00,18.0,14.0,-100.00,SW,235,1.0,4.0,83,0.00,,,-99.99,0.000000,,2013-03-18 03:53:00,
2013-03-17 22:02:00,18.0,14.0,-100.00,SW,235,1.0,4.0,83,0.00,,,-99.99,0.000000,,2013-03-18 04:02:00,
2013-03-17 22:23:00,17.0,12.0,-100.00,WSW,244,1.0,4.0,80,0.00,,,0.01,0.000000,,2013-03-18 04:23:00,
2013-03-17 22:33:00,17.0,12.0,-100.00,WSW,244,1.0,4.0,80,0.00,,,0.01,0.000000,,2013-03-18 04:33:00,
2013-03-17 22:42:00,17.0,12.0,-100.00,WSW,244,1.0,4.0,80,0.00,,,0.01,0.000000,,2013-03-18 04:42:00,
2013-03-17 22:52:00,17.0,12.0,-100.00,WSW,244,1.0,4.0,80,0.00,,,0.01,0.000000,,2013-03-18 04:52:00,
2013-03-17 23:02:00,17.0,12.0,-100.00,WSW,244,1.0,4.0,80,0.00,,,0.01,0.000000,,2013-03-18 05:02:00,
2013-03-17 23:32:00,15.0,11.0,-100.00,ESE,118,0.0,4.0,84,0.00,,,0.01,0.000000,,2013-03-18 05:32:00,
2013-03-17 23:43:00,15.0,11.0,-100.00,ESE,118,0.0,4.0,84,0.00,,,0.01,0.000000,,2013-03-18 05:43:00,
2013-03-17 23:52:00,15.0,11.0,-100.00,ESE,118,0.0,4.0,84,0.00,,,0.01,0.000000,,2013-03-18 05:52:00,